Huvudsida
METAR-TAF:

METAR-TAF

Flygplatser :

Elim, Alaska, USA

latitud: 64-36-54N, longitud: 162-16-14W, höjd: 49 m

Aktuellt väderrapport

Denna rapport gjordes för 59 minuter sedan, klockan 16:56 UTC
Vind 8 kt från sydväst
Temperatur 7°C
Fuktighet 70%
Tryck 1026 hPa
Sikt: 16.1 km
Mulet på en höjd av 2000 ft

METAR: PFEL 141656Z AUTO 22008KT 10SM OVC020 07/02 A3030 RMK AO2 SLP261 T00670017 PNO $

Tid: 09:55 (17:55 UTC)


TAF: saknas

Aktuella väderrapporter och prognoser från 4000 flygplatser (METAR- och TAF-rapporter).

De tillgängliga stationerna syns som gula och röda prickar på kartan.

För musen över prickarna för att se namnen på stationerna.

Klicka sedan för att få väderrapporter och prognoser.

För att ändra kartan: Klicka på de gröna knapparna med ett svart kors på för att zooma in; den gröna knappen med ett streck på för att zooma ut; eller på de gröna pilarna för angränsande kartor.


METAR-TAF: